메인 페이지
METAR-TAF:

METAR-TAF

공항 :

예카테린부르크, 러시아

콜초보 공항

위도: 56-50N, 경도: 060-38E, 고도: 237m

현재 날씨관측

예보는 12 시간 17분 전, 15:00시(UTC)에 발표되었습니다.
남남동8kt
온도 -8°C
습도 73%
기압 1013 hPa
시정: 7000m
약한눈

METAR: USSS 201500Z 15004MPS 7000 -SN NSC M08/M12 Q1013 R08L/190050 TEMPO 1200 SN BKN007 RMK QFE740/0986

시각: 08:17 (03:17 UTC)

예보

예보는 13 시간 18분 전, 13:59시(UTC)에 발표되었습니다.
예보 대상 시간: 20일 15시부터 21일 15시까지 (UTC)
남남동6kt
시정: 3100m
고도 1100ft 상공 구름 많음
약한눈, 박무
일시적
20일 15시부터 20일 21시까지 (UTC)
시정: 1600m
고도 600ft 상공
전환 중
21일 03시부터 21일 05시까지 (UTC)
시정: 5000m
박무
전환 중
21일 05시부터 21일 06시까지 (UTC)
시정 10km 이상

TAF: USSS 201359Z 2015/2115 15003MPS 3100 -SN BR BKN011 TEMPO 2015/2021 1600 SN VV006 BECMG 2103/2105 5000 BR BECMG 2105/2106 9999 NSW

4,000개 이상의 공항 관측 자료 및 예보 (METAR 및 TAF 보고).

지도상에서 검색 가능한 기상관측소가 노란 점과 빨간 점으로 표시되어 있습니다.

기상관측소 명을 보려면 표시 위로 마우스를 이동하세요.

날씨 관측과 예보를 보려면 클릭하세요.

지도 변경 : 확대하려면 엑스 표시가 있는 녹색 버튼, 축소하려면 빼기 표시가 있는 녹색 버튼, 다음 페이지의 지도를 보려면 녹색 화살표를 클릭하세요.


METAR-TAF: